Time;durP1;ratioP1;P1;durP2;ratioP2;P2;SDS_P1;SDS_P2;PMS_P1;PMS_P2;Temp;Humidity;BMP_temperature;BMP_pressure;BME280_temperature;BME280_humidity;BME280_pressure;Samples;Min_cycle;Max_cycle;Signal;HPM_P1;HPM_P2
2023/07/31 00:00:29;;;;;;;6.32;2.65;;;22.60;92.20;;;;;;5000649;28;20046;-66
2023/07/31 00:02:55;;;;;;;7.30;2.70;;;22.50;91.10;;;;;;5011314;28;20042;-66
2023/07/31 00:05:21;;;;;;;5.80;2.30;;;22.70;92.30;;;;;;5001701;28;20046;-66
2023/07/31 00:07:47;;;;;;;7.75;2.40;;;22.90;91.20;;;;;;5010833;28;20443;-68
2023/07/31 00:10:13;;;;;;;4.68;2.15;;;22.60;91.20;;;;;;5014924;28;20142;-65
2023/07/31 00:12:39;;;;;;;5.55;2.67;;;22.60;91.20;;;;;;5013563;28;20042;-68
2023/07/31 00:15:06;;;;;;;7.13;2.50;;;22.70;92.20;;;;;;5011877;28;20407;-67
2023/07/31 00:17:32;;;;;;;5.43;2.50;;;22.80;91.20;;;;;;5000951;28;20117;-61
2023/07/31 00:20:02;;;;;;;5.07;2.78;;;22.50;91.10;;;;;;4994581;28;20449;-67
2023/07/31 00:22:28;;;;;;;4.75;2.28;;;;;;;;;;5010571;28;20042;-66
2023/07/31 00:24:53;;;;;;;4.75;2.42;;;22.60;90.30;;;;;;5011785;28;20046;-67
2023/07/31 00:27:19;;;;;;;5.82;2.90;;;22.60;92.30;;;;;;5013458;28;20041;-67
2023/07/31 00:29:45;;;;;;;4.93;2.33;;;22.80;91.10;;;;;;5013093;28;20056;-68
2023/07/31 00:32:11;;;;;;;5.15;2.30;;;22.70;92.20;;;;;;5000787;28;20049;-70
2023/07/31 00:34:37;;;;;;;5.38;2.35;;;22.70;91.10;;;;;;5000874;28;20121;-67
2023/07/31 00:37:03;;;;;;;5.50;2.70;;;22.50;90.90;;;;;;5005579;28;20058;-66
2023/07/31 00:39:30;;;;;;;5.68;2.10;;;22.70;90.80;;;;;;5013535;28;20046;-63
2023/07/31 00:41:56;;;;;;;5.47;2.47;;;22.70;91.10;;;;;;5005798;28;20082;-67
2023/07/31 00:44:22;;;;;;;5.78;2.40;;;22.80;91.10;;;;;;4977067;28;20465;-67
2023/07/31 00:46:50;;;;;;;5.28;2.22;;;22.60;92.10;;;;;;5000911;28;20049;-61
2023/07/31 00:49:16;;;;;;;5.38;2.40;;;22.60;92.50;;;;;;5012948;28;20049;-70
2023/07/31 00:51:42;;;;;;;5.65;2.45;;;22.50;91.00;;;;;;4997522;28;20125;-69
2023/07/31 00:54:08;;;;;;;5.43;2.40;;;22.70;92.20;;;;;;5004566;28;20468;-69
2023/07/31 00:56:36;;;;;;;5.25;2.15;;;22.70;92.40;;;;;;5009984;28;20049;-70
2023/07/31 00:59:02;;;;;;;4.68;2.20;;;22.60;92.40;;;;;;4991497;28;20473;-68
2023/07/31 01:01:28;;;;;;;4.65;2.10;;;22.70;92.30;;;;;;5008572;28;20141;-67
2023/07/31 01:03:54;;;;;;;4.50;2.42;;;22.60;91.10;;;;;;4991720;28;20056;-62
2023/07/31 01:06:26;;;;;;;5.05;2.00;;;22.60;92.20;;;;;;5020590;28;20057;-62
2023/07/31 01:09:02;;;;;;;4.65;2.10;;;22.60;92.50;;;;;;5024700;28;20369;-63
2023/07/31 01:11:30;;;;;;;5.45;2.10;;;22.80;91.40;;;;;;5039471;28;20050;-62
2023/07/31 01:13:55;;;;;;;3.85;2.00;;;22.70;92.30;;;;;;5028002;28;20046;-64
2023/07/31 01:16:21;;;;;;;5.10;2.03;;;22.60;91.10;;;;;;4994846;28;20061;-62
2023/07/31 01:18:47;;;;;;;4.38;2.13;;;22.70;91.10;;;;;;5011260;28;20056;-63
2023/07/31 01:21:23;;;;;;;4.63;2.10;;;22.70;92.30;;;;;;5008606;28;20069;-69
2023/07/31 01:23:52;;;;;;;5.25;2.33;;;22.50;91.40;;;;;;5010578;28;20184;-68
2023/07/31 01:26:22;;;;;;;4.13;2.00;;;22.60;90.60;;;;;;5042233;28;20050;-69
2023/07/31 01:28:54;;;;;;;5.07;2.20;;;22.40;92.30;;;;;;5009711;28;20045;-69
2023/07/31 01:31:22;;;;;;;5.07;2.00;;;22.60;90.70;;;;;;5012376;28;20045;-70
2023/07/31 01:33:48;;;;;;;4.72;2.15;;;22.60;91.30;;;;;;4991689;28;20080;-70
2023/07/31 01:36:14;;;;;;;5.18;1.92;;;22.50;92.40;;;;;;5025150;28;20393;-68
2023/07/31 01:38:39;;;;;;;4.75;2.00;;;22.60;92.40;;;;;;5005744;28;20053;-69
2023/07/31 01:41:05;;;;;;;5.22;2.13;;;22.60;91.30;;;;;;5006711;28;20041;-69
2023/07/31 01:43:31;;;;;;;4.30;1.92;;;22.60;91.20;;;;;;5000349;28;20046;-69
2023/07/31 01:45:57;;;;;;;4.25;1.85;;;22.60;91.30;;;;;;5010664;28;20107;-70
2023/07/31 01:48:22;;;;;;;5.20;1.90;;;22.60;91.20;;;;;;5012042;28;20050;-68
2023/07/31 01:50:48;;;;;;;4.25;2.28;;;22.50;92.30;;;;;;5010981;28;20045;-69
2023/07/31 01:53:14;;;;;;;3.53;1.90;;;22.80;92.90;;;;;;5009650;28;20122;-69
2023/07/31 01:55:40;;;;;;;4.00;1.95;;;22.50;92.80;;;;;;5012628;28;20515;-69
2023/07/31 01:58:06;;;;;;;3.05;1.60;;;22.60;92.50;;;;;;5010742;28;20072;-63
2023/07/31 02:00:31;;;;;;;4.18;1.80;;;22.60;91.30;;;;;;5011220;28;20060;-69
2023/07/31 02:02:57;;;;;;;3.53;1.70;;;22.50;92.50;;;;;;5011523;28;20037;-68
2023/07/31 02:05:23;;;;;;;3.75;1.90;;;22.60;91.30;;;;;;5011255;28;20045;-69
2023/07/31 02:07:49;;;;;;;4.28;1.90;;;22.40;91.20;;;;;;5012512;28;20042;-69
2023/07/31 02:10:14;;;;;;;3.92;1.83;;;22.40;91.30;;;;;;5011031;28;20107;-68
2023/07/31 02:12:40;;;;;;;4.13;1.90;;;22.80;91.40;;;;;;5003583;28;20381;-70
2023/07/31 02:15:06;;;;;;;3.83;1.80;;;22.40;92.50;;;;;;4995238;28;20050;-69
2023/07/31 02:17:32;;;;;;;5.97;1.98;;;22.50;91.10;;;;;;5016841;28;20124;-69
2023/07/31 02:19:58;;;;;;;4.50;1.90;;;22.40;91.30;;;;;;5016704;28;20118;-69
2023/07/31 02:22:23;;;;;;;3.30;1.60;;;22.50;92.50;;;;;;5012564;28;20061;-69
2023/07/31 02:24:49;;;;;;;4.07;1.73;;;22.30;91.30;;;;;;5003521;28;20054;-69
2023/07/31 02:27:15;;;;;;;3.72;1.65;;;22.50;92.60;;;;;;4996981;28;20126;-68
2023/07/31 02:29:41;;;;;;;4.65;1.77;;;22.40;91.30;;;;;;4996796;28;20084;-68
2023/07/31 02:32:06;;;;;;;4.45;1.67;;;22.30;92.70;;;;;;5005459;28;20511;-65
2023/07/31 02:34:32;;;;;;;3.47;1.40;;;22.50;91.30;;;;;;5011504;28;20545;-63
2023/07/31 02:36:58;;;;;;;3.38;1.60;;;22.60;91.40;;;;;;5014987;28;20046;-67
2023/07/31 02:39:24;;;;;;;3.75;1.73;;;22.50;91.30;;;;;;5014608;28;20042;-69
2023/07/31 02:41:49;;;;;;;3.35;1.85;;;22.60;92.40;;;;;;5009315;28;20046;-64
2023/07/31 02:44:15;;;;;;;2.88;1.40;;;22.70;91.40;;;;;;5013310;28;20044;-66
2023/07/31 02:46:41;;;;;;;4.22;1.83;;;22.30;91.30;;;;;;5015760;28;20096;-63
2023/07/31 02:49:07;;;;;;;2.42;1.40;;;;;;;;;;5009689;28;20049;-64
2023/07/31 02:51:33;;;;;;;3.58;1.45;;;22.30;90.50;;;;;;5012460;28;20089;-62
2023/07/31 02:53:59;;;;;;;3.35;1.42;;;22.40;92.40;;;;;;4997634;28;20550;-64
2023/07/31 02:56:24;;;;;;;3.28;1.50;;;22.60;91.40;;;;;;4995039;28;20046;-62
2023/07/31 02:58:50;;;;;;;5.35;1.70;;;22.50;92.60;;;;;;5007788;28;20042;-62
2023/07/31 03:01:16;;;;;;;2.67;1.55;;;22.40;92.40;;;;;;5008340;28;20046;-63
2023/07/31 03:03:42;;;;;;;2.60;1.35;;;22.50;92.50;;;;;;5005912;28;20116;-68
2023/07/31 03:06:08;;;;;;;2.85;1.20;;;22.60;92.60;;;;;;5010321;28;20057;-69
2023/07/31 03:08:33;;;;;;;3.08;1.40;;;22.60;91.50;;;;;;5014419;28;20511;-70
2023/07/31 03:10:59;;;;;;;3.45;1.67;;;22.50;91.50;;;;;;5014796;28;20058;-63
2023/07/31 03:13:25;;;;;;;2.88;1.40;;;22.50;91.40;;;;;;5011272;28;20054;-70
2023/07/31 03:15:51;;;;;;;2.42;1.40;;;22.50;91.50;;;;;;5014098;28;20046;-70
2023/07/31 03:18:16;;;;;;;2.67;1.45;;;22.70;91.50;;;;;;4995936;28;20046;-69
2023/07/31 03:20:43;;;;;;;3.53;1.50;;;22.40;92.80;;;;;;5003038;28;20459;-70
2023/07/31 03:23:09;;;;;;;2.67;1.20;;;22.20;91.50;;;;;;5041342;28;20510;-69
2023/07/31 03:25:35;;;;;;;2.63;1.40;;;22.40;91.40;;;;;;5010307;28;20042;-69
2023/07/31 03:28:01;;;;;;;4.03;1.30;;;22.60;91.50;;;;;;5014307;28;20058;-70
2023/07/31 03:30:27;;;;;;;2.97;1.00;;;22.40;91.50;;;;;;4981608;28;20081;-70
2023/07/31 03:32:52;;;;;;;1.92;1.13;;;22.50;92.70;;;;;;4994308;28;20046;-68
2023/07/31 03:35:18;;;;;;;2.20;1.30;;;22.60;92.90;;;;;;5013421;28;20065;-69
2023/07/31 03:37:44;;;;;;;2.58;1.40;;;22.40;93.00;;;;;;5009264;28;20042;-68
2023/07/31 03:40:10;;;;;;;2.30;0.98;;;22.50;91.50;;;;;;4998256;28;20052;-69
2023/07/31 03:42:36;;;;;;;1.50;0.90;;;22.40;91.40;;;;;;5006874;28;20054;-68
2023/07/31 03:45:02;;;;;;;2.95;0.98;;;22.50;91.60;;;;;;5010319;28;20042;-69
2023/07/31 03:47:28;;;;;;;1.58;0.90;;;22.40;91.40;;;;;;5013534;28;20115;-70
2023/07/31 03:49:53;;;;;;;2.85;1.20;;;22.50;91.40;;;;;;5014786;28;20176;-70
2023/07/31 03:52:19;;;;;;;2.88;1.23;;;22.50;92.60;;;;;;5009458;28;20065;-69
2023/07/31 03:54:45;;;;;;;3.20;1.05;;;22.30;91.50;;;;;;5012370;28;20479;-69
2023/07/31 03:57:11;;;;;;;2.65;1.15;;;22.70;91.70;;;;;;5001617;28;20054;-70
2023/07/31 03:59:39;;;;;;;2.95;1.10;;;22.30;92.80;;;;;;5006379;28;20041;-70
2023/07/31 04:02:04;;;;;;;3.17;1.35;;;22.20;92.60;;;;;;5012324;28;20408;-70
2023/07/31 04:04:30;;;;;;;1.73;0.90;;;22.30;92.60;;;;;;4994655;28;20048;-69
2023/07/31 04:06:56;;;;;;;1.95;0.90;;;22.50;91.70;;;;;;5004715;28;20125;-70
2023/07/31 04:09:22;;;;;;;2.03;0.90;;;22.50;92.70;;;;;;4995162;28;20117;-70
2023/07/31 04:11:48;;;;;;;1.98;1.00;;;22.20;91.50;;;;;;4993569;28;20054;-70
2023/07/31 04:14:14;;;;;;;1.95;1.08;;;22.60;91.50;;;;;;5001912;28;20488;-70
2023/07/31 04:16:40;;;;;;;2.08;1.10;;;22.40;93.00;;;;;;5012895;28;20049;-70
2023/07/31 04:19:06;;;;;;;1.92;1.05;;;22.50;92.80;;;;;;5014296;28;20081;-70
2023/07/31 04:21:31;;;;;;;1.60;0.88;;;22.30;91.60;;;;;;5003480;28;20058;-68
2023/07/31 04:23:58;;;;;;;1.90;0.77;;;22.40;92.70;;;;;;5000948;28;20069;-61
2023/07/31 04:26:24;;;;;;;0.80;0.80;;;22.60;91.70;;;;;;5000749;28;20049;-68
2023/07/31 04:28:49;;;;;;;1.80;0.90;;;22.50;92.80;;;;;;5012246;28;20515;-68
2023/07/31 04:31:15;;;;;;;2.13;1.00;;;22.50;92.90;;;;;;5009913;28;20050;-68
2023/07/31 04:33:41;;;;;;;1.02;0.70;;;22.50;93.10;;;;;;4993217;28;20046;-69
2023/07/31 04:36:07;;;;;;;2.30;0.90;;;22.50;93.20;;;;;;5005556;28;20141;-67
2023/07/31 04:38:32;;;;;;;2.25;1.00;;;22.50;92.70;;;;;;5011842;28;20054;-68
2023/07/31 04:40:58;;;;;;;2.08;0.90;;;22.50;93.10;;;;;;5013913;28;20132;-69
2023/07/31 04:43:24;;;;;;;1.33;0.73;;;22.40;92.70;;;;;;5014193;28;20038;-68
2023/07/31 04:45:50;;;;;;;1.33;0.68;;;22.40;93.00;;;;;;5012614;28;20084;-67
2023/07/31 04:48:16;;;;;;;4.13;0.85;;;22.30;92.70;;;;;;5005297;28;20116;-67
2023/07/31 04:50:42;;;;;;;1.55;0.82;;;22.30;93.00;;;;;;5010419;28;20121;-69
2023/07/31 04:53:08;;;;;;;2.05;0.88;;;22.30;92.80;;;;;;5012743;28;20136;-68
2023/07/31 04:55:33;;;;;;;2.08;0.77;;;22.50;91.70;;;;;;4992973;28;20053;-69
2023/07/31 04:57:59;;;;;;;1.05;0.70;;;22.40;92.70;;;;;;5005475;28;20053;-68
2023/07/31 05:00:25;;;;;;;1.55;0.90;;;22.30;91.60;;;;;;5011555;28;20046;-69
2023/07/31 05:02:51;;;;;;;1.90;0.90;;;22.30;93.00;;;;;;5006091;28;20510;-69
2023/07/31 05:05:16;;;;;;;1.85;0.70;;;22.70;91.70;;;;;;5008811;28;20130;-69
2023/07/31 05:07:42;;;;;;;1.95;0.90;;;22.70;93.10;;;;;;4994083;28;20042;-66
2023/07/31 05:10:08;;;;;;;1.95;0.90;;;22.50;93.00;;;;;;5004678;28;20410;-70
2023/07/31 05:12:34;;;;;;;1.30;0.80;;;;;;;;;;5002387;28;20408;-71
2023/07/31 05:15:00;;;;;;;1.52;0.75;;;22.30;92.80;;;;;;5008045;28;20042;-61
2023/07/31 05:17:26;;;;;;;2.83;0.90;;;22.40;92.90;;;;;;5013355;28;20057;-62
2023/07/31 05:19:57;;;;;;;2.97;0.93;;;22.20;91.60;;;;;;5010092;28;20037;-64
2023/07/31 05:22:25;;;;;;;1.88;0.90;;;22.00;93.20;;;;;;5011986;28;20084;-62
2023/07/31 05:24:51;;;;;;;0.88;0.63;;;22.50;91.70;;;;;;5011850;28;20085;-69
2023/07/31 05:27:18;;;;;;;1.90;0.73;;;22.60;91.70;;;;;;4993937;28;20043;-62
2023/07/31 05:29:44;;;;;;;1.70;0.60;;;22.30;92.70;;;;;;5000790;28;20049;-60
2023/07/31 05:32:10;;;;;;;1.48;0.80;;;21.90;91.60;;;;;;5007241;28;20085;-62
2023/07/31 05:34:36;;;;;;;1.20;0.70;;;22.30;91.60;;;;;;5009866;28;20457;-62
2023/07/31 05:37:02;;;;;;;1.38;0.70;;;22.50;91.50;;;;;;5031435;28;20046;-61
2023/07/31 05:39:28;;;;;;;2.70;0.68;;;22.30;91.60;;;;;;4996366;28;20095;-61
2023/07/31 05:41:57;;;;;;;1.48;0.80;;;22.30;93.20;;;;;;5011650;28;20525;-61
2023/07/31 05:44:22;;;;;;;2.50;0.75;;;22.40;92.10;;;;;;4999299;28;20046;-61
2023/07/31 05:46:48;;;;;;;2.65;0.80;;;22.40;91.70;;;;;;4993417;28;20054;-61
2023/07/31 05:49:14;;;;;;;1.17;0.70;;;22.50;93.20;;;;;;5041124;28;20046;-61
2023/07/31 05:51:40;;;;;;;1.40;0.60;;;22.50;91.70;;;;;;5010161;28;20061;-61
2023/07/31 05:54:06;;;;;;;1.25;0.70;;;22.50;91.70;;;;;;5011124;28;20046;-61
2023/07/31 05:56:33;;;;;;;1.58;0.60;;;22.40;92.80;;;;;;5010424;28;20049;-61
2023/07/31 05:58:59;;;;;;;0.82;0.60;;;22.40;91.70;;;;;;5011331;28;20057;-61
2023/07/31 06:01:26;;;;;;;1.10;0.45;;;22.50;93.30;;;;;;5042043;28;20057;-62
2023/07/31 06:03:53;;;;;;;1.35;0.80;;;22.50;92.90;;;;;;5009157;28;20189;-60
2023/07/31 06:06:18;;;;;;;1.45;0.60;;;22.30;91.40;;;;;;5011703;28;20053;-61
2023/07/31 06:08:44;;;;;;;1.33;0.63;;;22.40;92.80;;;;;;5008360;28;20061;-61
2023/07/31 06:11:10;;;;;;;2.47;0.75;;;22.40;92.80;;;;;;5005057;28;20096;-61
2023/07/31 06:13:36;;;;;;;2.47;0.80;;;22.50;92.80;;;;;;5019951;28;20133;-61
2023/07/31 06:16:05;;;;;;;1.90;0.73;;;22.60;91.70;;;;;;5007711;28;20073;-61
2023/07/31 06:18:34;;;;;;;1.00;0.60;;;22.50;93.20;;;;;;5011512;28;20046;-61
2023/07/31 06:21:00;;;;;;;1.10;0.70;;;22.50;92.90;;;;;;5011590;28;20057;-69
2023/07/31 06:23:26;;;;;;;1.95;0.60;;;22.50;93.20;;;;;;5012460;28;20049;-61
2023/07/31 06:25:51;;;;;;;1.20;0.70;;;22.60;91.80;;;;;;5010056;28;20046;-62
2023/07/31 06:28:17;;;;;;;1.98;0.90;;;22.30;92.20;;;;;;5011179;28;20054;-61
2023/07/31 06:30:43;;;;;;;2.17;0.68;;;22.50;93.00;;;;;;5001570;28;20046;-61
2023/07/31 06:33:09;;;;;;;2.47;0.70;;;22.40;91.80;;;;;;5010625;28;20242;-62
2023/07/31 06:35:34;;;;;;;1.23;0.70;;;22.40;91.80;;;;;;4999179;28;20046;-61
2023/07/31 06:38:02;;;;;;;1.42;0.70;;;22.50;93.00;;;;;;5009092;28;20050;-61
2023/07/31 06:40:28;;;;;;;1.50;0.70;;;22.30;91.80;;;;;;5011394;28;20108;-61
2023/07/31 06:42:53;;;;;;;1.17;0.60;;;22.50;93.20;;;;;;4998252;28;20378;-61
2023/07/31 06:45:19;;;;;;;1.67;0.85;;;22.30;91.80;;;;;;4993113;28;20126;-61
2023/07/31 06:47:46;;;;;;;1.35;0.60;;;22.30;93.10;;;;;;4998881;28;20108;-61
2023/07/31 06:50:11;;;;;;;1.10;0.60;;;22.40;92.90;;;;;;5010682;28;20061;-66
2023/07/31 06:52:37;;;;;;;1.15;0.70;;;22.80;91.90;;;;;;5003112;28;20038;-62
2023/07/31 06:55:19;;;;;;;1.55;0.80;;;22.50;93.00;;;;;;4993105;28;20047;-64
2023/07/31 06:57:46;;;;;;;1.35;0.60;;;22.50;92.20;;;;;;5010063;28;20046;-62
2023/07/31 07:00:13;;;;;;;1.67;0.88;;;22.40;93.30;;;;;;5026373;28;20042;-63
2023/07/31 07:02:39;;;;;;;1.20;0.55;;;22.50;93.00;;;;;;5012296;28;20498;-62
2023/07/31 07:05:06;;;;;;;2.80;1.10;;;22.60;91.90;;;;;;5006076;28;20053;-62
2023/07/31 07:07:32;;;;;;;2.15;0.90;;;22.50;92.90;;;;;;5007950;28;20042;-67
2023/07/31 07:09:59;;;;;;;1.15;0.70;;;22.50;91.80;;;;;;5008842;28;20057;-62
2023/07/31 07:12:26;;;;;;;2.25;1.05;;;22.70;91.90;;;;;;5005638;28;20081;-63
2023/07/31 07:14:52;;;;;;;1.75;0.90;;;22.80;92.10;;;;;;4995211;28;20081;-62
2023/07/31 07:17:19;;;;;;;2.10;0.93;;;22.70;91.60;;;;;;4995227;28;20125;-62
2023/07/31 07:19:47;;;;;;;2.47;1.10;;;22.90;91.70;;;;;;5006137;28;20450;-62
2023/07/31 07:22:14;;;;;;;2.78;0.88;;;22.60;93.30;;;;;;5012508;28;20042;-62
2023/07/31 07:24:40;;;;;;;3.42;1.20;;;22.80;91.70;;;;;;5046884;28;20431;-62
2023/07/31 07:27:07;;;;;;;2.55;1.40;;;22.70;93.20;;;;;;4998241;28;20053;-62
2023/07/31 07:29:34;;;;;;;3.85;1.42;;;22.70;93.10;;;;;;5015363;28;20038;-62
2023/07/31 07:32:00;;;;;;;2.85;1.30;;;22.60;91.80;;;;;;5008974;28;20135;-63
2023/07/31 07:34:26;;;;;;;2.90;1.33;;;22.70;91.70;;;;;;5014119;28;20101;-62
2023/07/31 07:36:52;;;;;;;3.58;1.40;;;22.70;91.80;;;;;;5009191;28;20046;-63
2023/07/31 07:39:18;;;;;;;3.15;1.63;;;22.80;93.10;;;;;;4996361;28;20046;-62
2023/07/31 07:41:43;;;;;;;4.40;1.98;;;22.90;93.30;;;;;;5003865;28;20459;-62
2023/07/31 07:44:09;;;;;;;4.13;1.85;;;22.70;91.70;;;;;;4995801;28;20144;-62
2023/07/31 07:46:35;;;;;;;5.65;2.20;;;22.80;92.90;;;;;;4998109;28;20058;-68
2023/07/31 07:49:01;;;;;;;5.68;2.20;;;22.70;91.70;;;;;;5002480;28;20050;-61
2023/07/31 07:51:27;;;;;;;5.65;2.08;;;22.90;91.80;;;;;;5012151;28;20042;-62
2023/07/31 07:53:53;;;;;;;6.40;2.30;;;22.70;93.10;;;;;;5012740;28;20137;-62
2023/07/31 07:56:19;;;;;;;5.15;2.30;;;22.80;93.30;;;;;;5001200;28;20393;-61
2023/07/31 07:58:45;;;;;;;5.13;2.30;;;22.80;91.90;;;;;;5008060;28;20044;-61
2023/07/31 08:01:11;;;;;;;5.22;2.35;;;23.00;91.90;;;;;;5012297;28;20046;-61
2023/07/31 08:03:36;;;;;;;5.20;2.28;;;22.90;93.00;;;;;;5013808;28;20446;-61
2023/07/31 08:06:02;;;;;;;5.90;2.55;;;22.60;91.90;;;;;;5012651;28;20486;-61
2023/07/31 08:08:29;;;;;;;5.72;2.50;;;22.50;91.80;;;;;;5012636;28;20045;-61
2023/07/31 08:10:54;;;;;;;7.68;2.70;;;22.90;93.40;;;;;;5029696;28;20050;-61
2023/07/31 08:13:20;;;;;;;9.30;3.15;;;23.20;92.10;;;;;;4991837;28;20053;-61
2023/07/31 08:15:46;;;;;;;6.95;3.25;;;23.00;93.10;;;;;;5031394;28;20050;-65
2023/07/31 08:18:12;;;;;;;8.55;2.67;;;22.90;91.90;;;;;;4999522;28;20049;-61
2023/07/31 08:20:38;;;;;;;6.53;3.15;;;22.90;93.30;;;;;;5012360;28;20060;-61
2023/07/31 08:23:05;;;;;;;7.88;2.70;;;22.90;92.00;;;;;;4994366;28;20046;-61
2023/07/31 08:25:34;;;;;;;6.28;2.90;;;22.80;93.50;;;;;;5028569;28;20046;-61
2023/07/31 08:27:59;;;;;;;6.55;2.83;;;22.80;93.10;;;;;;5006096;28;20042;-75
2023/07/31 08:30:25;;;;;;;6.35;2.63;;;23.00;92.00;;;;;;4998273;28;20597;-62
2023/07/31 08:32:51;;;;;;;5.68;2.63;;;23.30;93.50;;;;;;4993015;28;20104;-61
2023/07/31 08:35:17;;;;;;;5.13;2.60;;;22.80;92.00;;;;;;4993113;28;20046;-78
2023/07/31 08:37:43;;;;;;;6.15;2.67;;;22.80;93.50;;;;;;4994463;28;20076;-63
2023/07/31 08:40:09;;;;;;;4.85;2.38;;;23.00;93.20;;;;;;5008310;28;20054;-78
2023/07/31 08:42:53;;;;;;;5.38;2.45;;;23.00;93.10;;;;;;4999276;28;20054;-72
2023/07/31 08:45:20;;;;;;;5.28;2.45;;;23.00;92.20;;;;;;5010154;28;20054;-61
2023/07/31 08:47:48;;;;;;;7.28;2.90;;;22.80;91.80;;;;;;5011941;28;20053;-60
2023/07/31 08:50:16;;;;;;;5.68;2.53;;;23.00;93.10;;;;;;5008569;28;20045;-79
2023/07/31 08:52:43;;;;;;;4.93;2.20;;;23.20;93.30;;;;;;5011171;28;20452;-63
2023/07/31 08:55:10;;;;;;;5.00;2.30;;;23.30;91.60;;;;;;5012847;28;20045;-75
2023/07/31 08:57:37;;;;;;;4.30;2.17;;;23.20;91.70;;;;;;5044348;28;20534;-65
2023/07/31 09:00:07;;;;;;;4.43;2.28;;;23.20;92.10;;;;;;5004637;28;20482;-63
2023/07/31 09:03:02;;;;;;;5.10;2.30;;;23.30;91.30;;;;;;5024455;28;20108;-63
2023/07/31 09:05:28;;;;;;;5.20;2.22;;;23.20;93.20;;;;;;5012821;28;20136;-76
2023/07/31 09:07:54;;;;;;;5.13;2.40;;;23.20;91.90;;;;;;4973633;28;20050;-62
2023/07/31 09:10:20;;;;;;;7.32;2.78;;;23.30;91.80;;;;;;5010661;28;20058;-64
2023/07/31 09:12:46;;;;;;;9.50;2.67;;;23.10;91.80;;;;;;5043667;28;20403;-63
2023/07/31 09:15:12;;;;;;;22.98;3.33;;;23.00;91.90;;;;;;4984272;28;20400;-63
2023/07/31 09:17:38;;;;;;;7.05;2.40;;;23.20;93.50;;;;;;5003057;28;20041;-64
2023/07/31 09:20:17;;;;;;;5.90;2.20;;;23.20;92.00;;;;;;5009466;28;20411;-64
2023/07/31 09:22:43;;;;;;;6.40;2.97;;;23.10;92.30;;;;;;4993506;28;20118;-63
2023/07/31 09:25:25;;;;;;;5.63;2.08;;;23.00;93.40;;;;;;4992122;28;20528;-66
2023/07/31 09:27:55;;;;;;;5.97;2.35;;;23.20;92.40;;;;;;5007899;28;20085;-67
2023/07/31 09:30:21;;;;;;;5.90;2.30;;;23.10;92.40;;;;;;5007046;28;20041;-63
2023/07/31 09:32:48;;;;;;;4.78;2.13;;;23.30;92.40;;;;;;5045054;28;20107;-63
2023/07/31 09:35:28;;;;;;;5.93;2.30;;;23.00;92.30;;;;;;4995388;28;20136;-64
2023/07/31 09:37:58;;;;;;;5.10;1.98;;;23.20;92.70;;;;;;5019150;28;20112;-64
2023/07/31 09:40:34;;;;;;;5.90;2.30;;;23.10;92.70;;;;;;4997463;28;20050;-64
2023/07/31 09:43:02;;;;;;;6.28;2.20;;;23.40;92.80;;;;;;5043168;28;20061;-65
2023/07/31 09:45:28;;;;;;;6.65;2.20;;;23.30;92.70;;;;;;5010413;28;20057;-66
2023/07/31 09:47:55;;;;;;;4.07;1.88;;;23.20;93.80;;;;;;4998893;28;20053;-64
2023/07/31 09:50:24;;;;;;;3.88;1.80;;;23.00;92.80;;;;;;4993214;28;20564;-64
2023/07/31 09:52:51;;;;;;;4.53;2.00;;;23.10;92.70;;;;;;5008998;28;20053;-66
2023/07/31 09:55:18;;;;;;;4.90;1.92;;;23.10;92.70;;;;;;4982981;28;20516;-63
2023/07/31 09:57:46;;;;;;;4.30;1.88;;;23.20;92.90;;;;;;4993956;28;20129;-63
2023/07/31 10:00:13;;;;;;;3.95;1.50;;;23.00;92.90;;;;;;4991778;28;20124;-64
2023/07/31 10:02:40;;;;;;;4.55;1.67;;;23.10;94.40;;;;;;4996526;28;20428;-64
2023/07/31 10:05:06;;;;;;;4.72;1.60;;;23.10;92.80;;;;;;5011372;28;20084;-63
2023/07/31 10:07:40;;;;;;;3.65;1.70;;;23.00;92.90;;;;;;4993740;28;20130;-64
2023/07/31 10:10:07;;;;;;;4.65;1.60;;;23.00;94.30;;;;;;5042531;28;20050;-63
2023/07/31 10:12:34;;;;;;;4.40;1.67;;;23.20;94.30;;;;;;4996438;28;20125;-71
2023/07/31 10:15:00;;;;;;;4.13;1.70;;;23.20;93.10;;;;;;5003125;28;20050;-64
2023/07/31 10:17:26;;;;;;;4.03;1.50;;;23.10;92.90;;;;;;5025554;28;20115;-77
2023/07/31 10:19:53;;;;;;;9.40;2.05;;;23.10;94.50;;;;;;5012385;28;20080;-66
2023/07/31 10:22:19;;;;;;;7.45;1.83;;;23.20;93.00;;;;;;5011256;28;20097;-64
2023/07/31 10:24:46;;;;;;;6.65;2.00;;;23.30;93.10;;;;;;4998002;28;20049;-63
2023/07/31 10:27:12;;;;;;;7.25;1.92;;;23.30;92.90;;;;;;5010487;28;20108;-63
2023/07/31 10:29:38;;;;;;;10.23;2.15;;;23.10;92.80;;;;;;4995477;28;20515;-64
2023/07/31 10:32:06;;;;;;;6.03;1.45;;;23.20;93.00;;;;;;5008019;28;20535;-64
2023/07/31 10:34:34;;;;;;;9.60;1.70;;;23.20;92.90;;;;;;4980466;28;20042;-66
2023/07/31 10:37:19;;;;;;;5.30;1.50;;;23.50;93.10;;;;;;5028001;28;20046;-66
2023/07/31 10:39:45;;;;;;;3.67;1.65;;;23.30;93.30;;;;;;5045430;28;20058;-64
2023/07/31 10:42:12;;;;;;;4.78;1.48;;;23.10;93.00;;;;;;4987282;28;20046;-64
2023/07/31 10:44:40;;;;;;;3.75;1.45;;;23.30;94.10;;;;;;5013027;28;20133;-64
2023/07/31 10:47:07;;;;;;;4.03;1.58;;;23.30;94.30;;;;;;4991963;28;20073;-71
2023/07/31 10:49:33;;;;;;;5.03;1.55;;;23.70;94.40;;;;;;5013212;28;20050;-76
2023/07/31 10:51:59;;;;;;;4.35;1.60;;;23.50;93.10;;;;;;5048003;28;20049;-73
2023/07/31 10:54:25;;;;;;;4.57;1.33;;;23.40;92.80;;;;;;5014210;28;20125;-70
2023/07/31 10:56:52;;;;;;;5.47;1.55;;;23.50;94.60;;;;;;4986015;28;20280;-75
2023/07/31 10:59:20;;;;;;;2.78;1.38;;;23.30;94.30;;;;;;5042859;28;20104;-71
2023/07/31 11:02:02;;;;;;;3.42;1.40;;;23.30;93.00;;;;;;4998441;28;20129;-70
2023/07/31 11:04:30;;;;;;;4.18;1.48;;;23.00;93.20;;;;;;5010346;28;20046;-74
2023/07/31 11:07:01;;;;;;;2.55;1.13;;;23.10;94.30;;;;;;4997290;28;20137;-61
2023/07/31 11:09:32;;;;;;;3.60;1.40;;;23.40;93.20;;;;;;5012408;28;20388;-72
2023/07/31 11:12:01;;;;;;;4.10;1.23;;;23.40;93.20;;;;;;5041991;28;20125;-61
2023/07/31 11:14:27;;;;;;;3.38;1.25;;;23.50;93.10;;;;;;5012899;28;20048;-63
2023/07/31 11:16:53;;;;;;;2.90;1.15;;;23.30;94.40;;;;;;4998347;28;20556;-62
2023/07/31 11:19:24;;;;;;;2.40;1.20;;;23.30;92.90;;;;;;5011257;28;20427;-62
2023/07/31 11:21:52;;;;;;;2.63;1.25;;;23.30;92.70;;;;;;5041989;28;20471;-61
2023/07/31 11:24:19;;;;;;;2.88;1.30;;;23.30;93.20;;;;;;5012917;28;20113;-61
2023/07/31 11:26:52;;;;;;;3.58;1.40;;;23.50;92.90;;;;;;5013160;28;20125;-61
2023/07/31 11:29:19;;;;;;;2.45;1.20;;;23.40;94.50;;;;;;4994919;28;20041;-62
2023/07/31 11:31:46;;;;;;;3.33;1.65;;;23.40;94.40;;;;;;5009036;28;20069;-73
2023/07/31 11:34:12;;;;;;;3.45;1.33;;;23.60;93.10;;;;;;4996132;28;20116;-73
2023/07/31 11:36:39;;;;;;;5.70;1.48;;;23.40;93.00;;;;;;5011162;28;20188;-61
2023/07/31 11:39:09;;;;;;;3.75;1.50;;;23.50;94.40;;;;;;5021754;28;20061;-62
2023/07/31 11:41:35;;;;;;;4.20;1.58;;;23.70;92.50;;;;;;5042852;28;20092;-65
2023/07/31 11:44:01;;;;;;;5.22;2.05;;;23.60;92.80;;;;;;5012907;28;20116;-62
2023/07/31 11:46:31;;;;;;;6.75;2.33;;;23.90;93.00;;;;;;5002442;28;20503;-72
2023/07/31 11:49:01;;;;;;;6.13;2.38;;;23.80;93.10;;;;;;4994977;28;20061;-62
2023/07/31 11:51:29;;;;;;;6.53;2.00;;;23.40;92.70;;;;;;5042565;28;20107;-62
2023/07/31 11:53:58;;;;;;;6.35;1.95;;;23.60;94.70;;;;;;5007749;28;20046;-61
2023/07/31 11:56:24;;;;;;;6.90;2.28;;;23.60;92.80;;;;;;5011014;28;20050;-61
2023/07/31 11:58:57;;;;;;;7.93;2.10;;;23.40;93.00;;;;;;4994846;28;20046;-71
2023/07/31 12:01:25;;;;;;;5.35;1.90;;;23.60;94.50;;;;;;4993599;28;20133;-79
2023/07/31 12:03:51;;;;;;;6.70;2.30;;;23.80;94.70;;;;;;4998377;28;20041;-78
2023/07/31 12:06:20;;;;;;;7.28;2.35;;;23.60;93.20;;;;;;5013201;28;20488;-73
2023/07/31 12:08:46;;;;;;;6.82;2.60;;;23.60;93.30;;;;;;5011173;28;20041;-61
2023/07/31 12:11:18;;;;;;;6.45;2.40;;;23.60;93.20;;;;;;5011464;28;20076;-79
2023/07/31 12:13:44;;;;;;;5.85;2.00;;;23.20;94.70;;;;;;5014336;28;20099;-62
2023/07/31 12:16:11;;;;;;;4.85;1.85;;;23.50;93.00;;;;;;5009520;28;20085;-61
2023/07/31 12:18:38;;;;;;;8.43;2.17;;;23.90;94.80;;;;;;5004401;28;20042;-69
2023/07/31 12:21:08;;;;;;;7.72;2.03;;;23.40;93.10;;;;;;5012097;28;20077;-61
2023/07/31 12:23:35;;;;;;;5.95;1.73;;;23.40;93.30;;;;;;5014509;28;20054;-60
2023/07/31 12:26:05;;;;;;;6.20;1.77;;;23.40;93.10;;;;;;4979950;28;20046;-61
2023/07/31 12:28:54;;;;;;;7.03;2.10;;;23.60;94.80;;;;;;5006881;28;20500;-61
2023/07/31 12:31:23;;;;;;;5.20;1.67;;;23.40;93.50;;;;;;5041878;28;20073;-61
2023/07/31 12:33:51;;;;;;;7.03;2.38;;;23.60;93.10;;;;;;4977358;28;20062;-61
2023/07/31 12:36:20;;;;;;;3.78;1.85;;;23.50;92.90;;;;;;4993205;28;20194;-60
2023/07/31 12:38:50;;;;;;;4.07;1.50;;;23.80;94.70;;;;;;5002332;28;20089;-72
2023/07/31 12:41:19;;;;;;;5.18;1.67;;;23.60;92.60;;;;;;5012912;28;20065;-60
2023/07/31 12:43:47;;;;;;;4.45;1.80;;;23.70;92.90;;;;;;4982619;28;20054;-60
2023/07/31 12:46:16;;;;;;;4.70;1.65;;;23.60;92.70;;;;;;4995788;28;20077;-61